Terminal Aerodrome Forecast
Issued by NWS Lubbock, TX

Home | Current Version | Previous Version | Text Only | Print | Product List | Glossary On
Versions: 1 2 3 4 5 6 7 8 9 10 11 12 13 14 15 16 17 18 19 20 21 22 23
000
FTUS44 KLUB 212335
TAFLBB
TAF
KLBB 212335Z 2200/2224 27011KT P6SM BKN090 BKN250
     FM220020 36018KT P6SM BKN100 BKN250
     FM220300 36010KT P6SM FEW120=

USA.gov is the U.S. government's official web portal to all federal, state and local government web resources and services.